Newton, NC (28658)

2:45 PM EDT on August 31, 2015 (GMT -0400)
Cambridge Place Townhomes-Thornburg Drive, Conover | | Change Station
CLOSE
Current Station
Personal Weather Station
Location: Conover, NC
Elevation: 1017 ft
Nearby Weather Stations

Elev 1017 ft 35.71 °N, 81.20 °W | Updated 1 minute ago

Partly Cloudy
Partly Cloudy
86.4 °F
Feels Like 88 °F
N
1.1
Wind Variable Wind from ESE

Today
High -- | Low -- °F
--% Chance of Precip.
Yesterday
High -- | Low -- °F
Precip. -- in
6:56 AM 7:53 PM
Waning Gibbous, 94% visible
Pressure 30.06 in
Visibility 10.0 miles
Clouds Scattered Clouds 3800 ft
Heat Index 88 °F
Dew Point 64 °F
Humidity 47%
Rainfall 0.00 in
Snow Depth Not available.
UV 8 out of 12
Pollen 5.60 out of 12
Air Quality Not available.
Flu Activity Not available.
METAR KHKY 311753Z VRB04KT 10SM SCT038 28/17 A3012 RMK AO2 SLP177 T02780167 10283 20183 58013
Pressure 30.06 in
Visibility 10.0 miles
Clouds Scattered Clouds 3800 ft
Heat Index 88 °F
Dew Point 64 °F
Humidity 47%
Rainfall 0.00 in
Snow Depth Not available.
UV 8 out of 12
Pollen 5.60 out of 12
Air Quality Not available.
Flu Activity Not available.
METAR KHKY 311753Z VRB04KT 10SM SCT038 28/17 A3012 RMK AO2 SLP177 T02780167 10283 20183 58013

10-Day Weather Forecast

×

Almanac

Astronomy

Aug. 31, 2015 Rise Set
Actual Time
Civil Twilight
Nautical Twilight
Astronomical Twilight
Moon
Length of Visible Light
Length of Day
Tomorrow will be .
, % of the Moon is Illuminated

Today's Extremes

State Highs State Lows

Community

WunderPhotos

Upload Photos

1,851,334 photos uploaded!

WunderBlogs® & News

Nearby

Air Quality

  Air Quality AQ Index Pollutant
Not available.

Snow Depth

Station Depth Elevation

Earthquake Activity

City Distance Mag. Time & Date
Minimum magnitude displayed is 2.5.

Coastal Water Temperatures

Place Temperature

Stations

Nearby Weather Stations

Station Location Temp. Windchill Dew Point Humidity Wind Precip. Elev Updated Type